createdAt,value
2022-09-15T00:02:24.613Z,5.47
2022-09-15T00:04:51.190Z,3.65
2022-09-15T00:07:17.681Z,5.43
2022-09-15T00:09:44.109Z,5.90
2022-09-15T00:12:10.590Z,4.47
2022-09-15T00:14:37.047Z,5.13
2022-09-15T00:17:03.669Z,5.13
2022-09-15T00:19:30.128Z,3.65
2022-09-15T00:21:56.571Z,4.70
2022-09-15T00:24:23.018Z,5.40
2022-09-15T00:26:49.486Z,3.47
2022-09-15T00:29:16.081Z,3.50
2022-09-15T00:31:42.499Z,4.38
2022-09-15T00:34:12.089Z,4.90
2022-09-15T00:36:38.524Z,2.95
2022-09-15T00:39:05.398Z,4.53
2022-09-15T00:41:31.919Z,3.13
2022-09-15T00:44:24.395Z,4.40
2022-09-15T00:47:09.656Z,4.47
2022-09-15T00:49:41.557Z,2.33
2022-09-15T00:52:54.690Z,2.45
2022-09-15T00:55:27.316Z,2.28
2022-09-15T00:57:57.161Z,2.38
2022-09-15T01:00:26.482Z,3.65
2022-09-15T01:02:53.345Z,2.63
2022-09-15T01:05:23.728Z,2.47
2022-09-15T01:07:56.065Z,3.65
2022-09-15T01:10:27.490Z,4.35
2022-09-15T01:12:57.081Z,1.80
2022-09-15T01:15:28.626Z,2.97
2022-09-15T01:18:34.816Z,3.50
2022-09-15T01:21:08.961Z,2.90
2022-09-15T01:24:12.098Z,3.55
2022-09-15T01:26:52.469Z,2.33
2022-09-15T01:29:37.603Z,2.08
2022-09-15T01:32:31.377Z,2.20
2022-09-15T01:35:08.428Z,3.33
2022-09-15T01:37:39.648Z,2.75
2022-09-15T01:40:07.167Z,2.33
2022-09-15T01:42:34.274Z,3.53
2022-09-15T01:45:08.934Z,1.73
2022-09-15T01:47:36.330Z,3.25
2022-09-15T01:50:09.995Z,2.90
2022-09-15T01:52:37.362Z,2.38
2022-09-15T01:55:09.864Z,2.22
2022-09-15T01:57:36.329Z,2.15
2022-09-15T02:00:03.926Z,2.88
2022-09-15T02:02:36.206Z,1.67
2022-09-15T02:05:08.554Z,2.00
2022-09-15T02:07:47.750Z,3.42
2022-09-15T02:10:30.865Z,3.65
2022-09-15T02:12:59.890Z,3.00
2022-09-15T02:15:33.300Z,2.30
2022-09-15T02:18:03.090Z,3.72
2022-09-15T02:20:53.016Z,1.92
2022-09-15T02:23:32.792Z,1.80
2022-09-15T02:26:06.668Z,1.65
2022-09-15T02:28:36.263Z,2.28
2022-09-15T02:31:04.178Z,2.17
2022-09-15T02:33:35.713Z,2.08
2022-09-15T02:36:03.326Z,1.83
2022-09-15T02:38:35.157Z,3.83
2022-09-15T02:41:02.275Z,3.10
2022-09-15T02:43:29.568Z,3.58
2022-09-15T02:45:56.084Z,3.90
2022-09-15T02:48:22.705Z,2.05
2022-09-15T02:50:49.165Z,2.63
2022-09-15T02:53:15.599Z,2.38
2022-09-15T02:55:42.223Z,3.58
2022-09-15T02:58:08.675Z,2.17
2022-09-15T03:00:35.249Z,3.95
2022-09-15T03:03:01.766Z,3.30
2022-09-15T03:05:29.952Z,2.67
2022-09-15T03:07:56.963Z,3.67
2022-09-15T03:10:24.640Z,3.88
2022-09-15T03:12:53.139Z,2.05
2022-09-15T03:15:22.210Z,3.95
2022-09-15T03:17:48.811Z,3.63
2022-09-15T03:20:19.960Z,2.30
2022-09-15T03:22:46.959Z,2.58
2022-09-15T03:25:13.610Z,2.42
2022-09-15T03:27:40.212Z,2.78
2022-09-15T03:30:07.733Z,3.50
2022-09-15T03:32:34.233Z,2.50
2022-09-15T03:35:00.770Z,3.85
2022-09-15T03:37:27.589Z,3.55
2022-09-15T03:39:54.174Z,2.55
2022-09-15T03:42:21.380Z,2.55
2022-09-15T03:44:47.966Z,4.53
2022-09-15T03:47:14.553Z,2.30
2022-09-15T03:49:40.980Z,4.05
2022-09-15T03:52:07.690Z,3.83
2022-09-15T03:54:35.410Z,4.10
2022-09-15T03:57:01.941Z,3.88
2022-09-15T03:59:28.359Z,4.07
2022-09-15T04:01:54.828Z,3.05
2022-09-15T04:04:21.317Z,3.70
2022-09-15T04:06:47.805Z,2.33
2022-09-15T04:09:14.493Z,2.67
2022-09-15T04:11:40.933Z,3.47
2022-09-15T04:14:07.389Z,2.63
2022-09-15T04:16:33.997Z,4.10
2022-09-15T04:19:01.471Z,2.75
2022-09-15T04:21:27.906Z,3.03
2022-09-15T04:23:54.430Z,2.78
2022-09-15T04:26:32.970Z,2.70
2022-09-15T04:29:03.919Z,4.18
2022-09-15T04:31:31.977Z,2.30
2022-09-15T04:33:59.278Z,3.40
2022-09-15T04:36:28.186Z,4.18
2022-09-15T04:38:55.284Z,4.22
2022-09-15T04:41:22.049Z,2.55
2022-09-15T04:43:48.599Z,3.95
2022-09-15T04:46:15.488Z,2.25
2022-09-15T04:48:43.132Z,2.97
2022-09-15T04:51:20.763Z,3.53
2022-09-15T04:53:47.340Z,2.25
2022-09-15T04:56:18.866Z,4.07
2022-09-15T04:58:48.185Z,2.90
2022-09-15T05:03:49.087Z,2.92
2022-09-15T05:06:18.924Z,2.80
2022-09-15T05:08:53.313Z,3.05
2022-09-15T05:11:20.046Z,4.07
2022-09-15T05:13:46.964Z,2.67
2022-09-15T05:16:14.610Z,4.32
2022-09-15T05:18:42.762Z,4.03
2022-09-15T05:21:10.813Z,3.97
2022-09-15T05:23:37.703Z,4.00
2022-09-15T05:26:06.646Z,2.95
2022-09-15T05:28:34.773Z,4.53
2022-09-15T05:31:01.505Z,3.45
2022-09-15T05:33:28.237Z,4.25
2022-09-15T05:35:59.380Z,3.25
2022-09-15T05:38:27.876Z,2.92
2022-09-15T05:40:54.428Z,5.05
2022-09-15T05:43:21.327Z,4.65
2022-09-15T05:45:54.876Z,3.95
2022-09-15T05:48:21.676Z,2.95
2022-09-15T05:50:49.900Z,2.80
2022-09-15T05:53:16.341Z,2.63
2022-09-15T05:55:42.902Z,4.95
2022-09-15T05:58:09.777Z,2.38
2022-09-15T06:00:36.660Z,4.05
2022-09-15T06:03:04.167Z,4.70
2022-09-15T06:05:30.834Z,4.55
2022-09-15T06:07:57.269Z,4.22
2022-09-15T06:10:24.977Z,2.35
2022-09-15T06:12:55.054Z,2.08
2022-09-15T06:15:22.759Z,3.65
2022-09-15T06:17:49.460Z,3.53
2022-09-15T06:20:16.048Z,3.40
2022-09-15T06:22:42.529Z,2.72
2022-09-15T06:25:09.085Z,4.25
2022-09-15T06:27:35.527Z,3.88
2022-09-15T06:30:01.944Z,4.13
2022-09-15T06:32:28.401Z,2.25
2022-09-15T06:34:54.851Z,2.33
2022-09-15T06:37:21.479Z,2.17
2022-09-15T06:39:48.077Z,2.58
2022-09-15T06:42:14.552Z,2.42
2022-09-15T06:44:41.498Z,2.78
2022-09-15T06:47:08.029Z,3.75
2022-09-15T06:49:34.539Z,1.85
2022-09-15T06:52:02.460Z,2.97
2022-09-15T06:54:28.941Z,3.20
2022-09-15T06:56:55.431Z,2.88
2022-09-15T06:59:23.875Z,2.70
2022-09-15T07:01:54.640Z,2.88
2022-09-15T07:04:23.850Z,2.10
2022-09-15T07:09:19.802Z,1.63
2022-09-15T07:11:46.276Z,1.70
2022-09-15T07:14:12.778Z,1.70
2022-09-15T07:16:39.363Z,1.75
2022-09-15T07:19:06.129Z,1.63
2022-09-15T07:21:33.539Z,2.15
2022-09-15T07:24:02.637Z,1.10
2022-09-15T07:26:33.799Z,1.52
2022-09-15T07:29:02.799Z,1.55
2022-09-15T07:31:32.152Z,2.50
2022-09-15T07:33:59.825Z,2.35
2022-09-15T07:36:26.733Z,1.77
2022-09-15T07:38:53.479Z,2.08
2022-09-15T07:41:22.263Z,2.83
2022-09-15T07:43:50.883Z,2.53
2022-09-15T07:46:17.984Z,2.53
2022-09-15T07:48:49.247Z,2.22
2022-09-15T07:51:16.546Z,2.25
2022-09-15T07:53:44.020Z,5.63
2022-09-15T07:56:10.542Z,2.70
2022-09-15T07:58:37.004Z,2.40
2022-09-15T08:01:05.307Z,2.33
2022-09-15T08:03:32.358Z,1.75
2022-09-15T08:06:00.295Z,3.17
2022-09-15T08:08:27.109Z,2.35
2022-09-15T08:10:53.887Z,2.25
2022-09-15T08:13:20.647Z,1.10
2022-09-15T08:15:49.149Z,2.08
2022-09-15T08:18:15.852Z,1.10
2022-09-15T08:20:43.085Z,1.88
2022-09-15T08:23:11.012Z,1.40
2022-09-15T08:25:40.544Z,1.70
2022-09-15T08:28:07.018Z,1.88
2022-09-15T08:30:33.561Z,1.80
2022-09-15T08:33:00.001Z,1.08
2022-09-15T08:35:26.509Z,1.98
2022-09-15T08:37:56.772Z,2.30
2022-09-15T08:40:28.292Z,1.42
2022-09-15T08:42:57.797Z,1.52
2022-09-15T08:45:30.758Z,1.23
2022-09-15T08:48:00.141Z,1.08
2022-09-15T08:50:33.671Z,0.90
2022-09-15T08:53:03.155Z,1.25
2022-09-15T08:55:41.551Z,1.95
2022-09-15T08:58:14.682Z,1.08
2022-09-15T09:00:42.144Z,2.33
2022-09-15T09:03:36.676Z,1.35
2022-09-15T09:06:21.874Z,2.20
2022-09-15T09:08:56.029Z,2.50
2022-09-15T09:11:35.536Z,1.95
2022-09-15T09:14:18.975Z,1.10
2022-09-15T09:17:00.097Z,2.28
2022-09-15T09:19:47.908Z,2.05
2022-09-15T09:22:17.575Z,1.02
2022-09-15T09:24:46.294Z,0.60
2022-09-15T09:27:29.028Z,1.38
2022-09-15T09:30:12.334Z,0.80
2022-09-15T09:32:45.017Z,2.30
2022-09-15T09:35:21.452Z,0.73
2022-09-15T09:37:49.455Z,0.90
2022-09-15T09:40:16.370Z,0.80
2022-09-15T09:42:43.624Z,2.45
2022-09-15T09:45:13.977Z,1.98
2022-09-15T09:47:41.342Z,1.55
2022-09-15T09:50:39.695Z,1.05
2022-09-15T09:53:28.715Z,0.90
2022-09-15T09:56:11.493Z,0.95
2022-09-15T09:58:38.514Z,2.08
2022-09-15T10:01:14.087Z,0.80
2022-09-15T10:03:41.871Z,2.13
2022-09-15T10:06:22.097Z,1.25
2022-09-15T10:08:57.995Z,1.80
2022-09-15T10:11:41.948Z,0.57
2022-09-15T10:14:19.843Z,2.30
2022-09-15T10:17:06.553Z,1.48
2022-09-15T10:19:44.132Z,0.60
2022-09-15T10:22:21.201Z,1.95
2022-09-15T10:24:50.031Z,1.45
2022-09-15T10:27:26.144Z,0.60
2022-09-15T10:29:53.298Z,1.38
2022-09-15T10:32:29.717Z,0.40
2022-09-15T10:35:06.557Z,0.50
2022-09-15T10:37:48.135Z,1.70
2022-09-15T10:40:26.039Z,2.05
2022-09-15T10:42:54.072Z,0.95
2022-09-15T10:45:43.580Z,0.75
2022-09-15T10:48:19.062Z,1.33
2022-09-15T10:53:39.446Z,1.60
2022-09-15T10:56:44.119Z,0.52
2022-09-15T10:59:45.791Z,1.55
2022-09-15T11:02:25.420Z,1.80
2022-09-15T11:04:57.964Z,1.55
2022-09-15T11:07:34.413Z,2.33
2022-09-15T11:10:23.563Z,1.15
2022-09-15T11:12:59.506Z,1.70
2022-09-15T11:15:37.290Z,0.70
2022-09-15T11:18:18.170Z,0.70
2022-09-15T11:21:09.609Z,1.50
2022-09-15T11:23:44.212Z,1.75
2022-09-15T11:26:16.019Z,1.52
2022-09-15T11:28:51.143Z,1.30
2022-09-15T11:31:41.428Z,0.45
2022-09-15T11:34:23.805Z,0.57
2022-09-15T11:37:11.050Z,0.80
2022-09-15T11:39:45.063Z,1.58
2022-09-15T11:42:20.658Z,0.47
2022-09-15T11:44:47.583Z,1.23
2022-09-15T11:47:16.494Z,1.55
2022-09-15T11:49:47.927Z,0.60
2022-09-15T11:52:22.420Z,0.80
2022-09-15T11:54:55.346Z,0.55
2022-09-15T11:57:28.418Z,1.58
2022-09-15T12:00:00.927Z,1.70
2022-09-15T12:02:52.770Z,1.48
2022-09-15T12:05:26.331Z,1.77
2022-09-15T12:08:10.459Z,0.55
2022-09-15T12:10:43.522Z,0.85
2022-09-15T12:13:17.578Z,1.35
2022-09-15T12:15:45.511Z,1.25
2022-09-15T12:18:53.416Z,1.67
2022-09-15T12:21:34.016Z,1.35
2022-09-15T12:24:11.194Z,1.15
2022-09-15T12:26:38.250Z,1.20
2022-09-15T12:29:27.285Z,1.40
2022-09-15T12:32:19.694Z,1.33
2022-09-15T12:35:01.354Z,0.60
2022-09-15T12:37:37.287Z,1.42
2022-09-15T12:40:06.552Z,1.48
2022-09-15T12:42:35.051Z,1.63
2022-09-15T12:45:07.956Z,1.45
2022-09-15T12:47:38.149Z,0.63
2022-09-15T12:50:16.631Z,0.50
2022-09-15T12:52:55.108Z,1.88
2022-09-15T12:55:24.833Z,1.55
2022-09-15T12:57:53.461Z,0.80
2022-09-15T13:00:23.285Z,1.67
2022-09-15T13:02:51.661Z,0.63
2022-09-15T13:05:40.168Z,0.60
2022-09-15T13:08:17.063Z,1.55
2022-09-15T13:10:59.820Z,1.50
2022-09-15T13:13:34.767Z,2.78
2022-09-15T13:16:02.372Z,1.60
2022-09-15T13:18:30.878Z,0.77
2022-09-15T13:21:00.550Z,0.47
2022-09-15T13:23:29.697Z,0.90
2022-09-15T13:25:57.637Z,0.60
2022-09-15T13:28:24.985Z,1.73
2022-09-15T13:31:13.441Z,0.73
2022-09-15T13:40:05.788Z,1.67
2022-09-15T13:42:53.638Z,0.75
2022-09-15T13:45:38.852Z,0.63
2022-09-15T13:48:19.727Z,0.60
2022-09-15T13:51:02.608Z,1.45
2022-09-15T13:53:37.922Z,1.67
2022-09-15T14:01:23.468Z,1.88
2022-09-15T14:03:58.385Z,1.70
2022-09-15T14:06:33.471Z,0.68
2022-09-15T14:09:04.537Z,1.33
2022-09-15T14:11:33.099Z,2.33
2022-09-15T14:14:00.830Z,0.93
2022-09-15T14:16:27.824Z,1.35
2022-09-15T14:18:57.764Z,0.77
2022-09-15T14:21:32.881Z,0.52
2022-09-15T14:24:22.156Z,0.77
2022-09-15T14:26:48.846Z,1.20
2022-09-15T14:29:19.584Z,0.93
2022-09-15T14:31:47.431Z,0.55
2022-09-15T14:34:18.607Z,0.63
2022-09-15T14:36:45.938Z,0.60
2022-09-15T14:39:12.438Z,0.75
2022-09-15T14:41:40.113Z,0.75
2022-09-15T14:45:54.865Z,2.25
2022-09-15T14:47:26.338Z,1.25
2022-09-15T14:50:11.165Z,0.90
2022-09-15T14:52:40.730Z,1.70
2022-09-15T14:55:24.062Z,1.60
2022-09-15T14:58:03.906Z,1.10
2022-09-15T15:00:35.278Z,2.17
2022-09-15T15:03:16.175Z,2.60
2022-09-15T15:06:02.846Z,1.40
2022-09-15T15:08:40.332Z,2.33
2022-09-15T15:11:07.886Z,1.38
2022-09-15T15:13:35.004Z,1.85
2022-09-15T15:16:06.462Z,0.60
2022-09-15T15:18:38.504Z,0.40
2022-09-15T15:21:06.900Z,1.23
2022-09-15T15:23:33.487Z,1.67
2022-09-15T15:26:27.192Z,0.65
2022-09-15T15:28:53.712Z,0.28
2022-09-15T15:31:25.174Z,0.52
2022-09-15T15:34:06.857Z,1.40
2022-09-15T15:36:35.053Z,1.13
2022-09-15T15:39:05.506Z,1.40
2022-09-15T15:41:35.923Z,0.82
2022-09-15T15:44:08.209Z,1.33
2022-09-15T15:47:01.674Z,0.88
2022-09-15T15:49:32.750Z,1.27
2022-09-15T15:52:00.748Z,0.50
2022-09-15T15:54:27.552Z,0.55
2022-09-15T15:56:54.523Z,1.90
2022-09-15T15:59:24.788Z,1.23
2022-09-15T16:01:54.197Z,1.20
2022-09-15T16:04:20.687Z,0.85
2022-09-15T16:06:47.619Z,0.40
2022-09-15T16:09:14.767Z,0.60
2022-09-15T16:11:42.670Z,0.50
2022-09-15T16:14:12.105Z,0.50
2022-09-15T16:16:38.658Z,1.30
2022-09-15T16:19:05.154Z,1.45
2022-09-15T16:21:42.239Z,1.63
2022-09-15T16:24:13.638Z,1.30
2022-09-15T16:26:40.369Z,1.27
2022-09-15T16:29:06.857Z,1.25
2022-09-15T16:31:33.670Z,1.48
2022-09-15T16:34:00.260Z,0.60
2022-09-15T16:36:27.134Z,0.63
2022-09-15T16:38:53.819Z,1.45
2022-09-15T16:41:28.421Z,0.55
2022-09-15T16:43:57.788Z,0.70
2022-09-15T16:46:24.327Z,1.65
2022-09-15T16:48:50.920Z,1.38
2022-09-15T16:51:34.995Z,1.35
2022-09-15T16:54:01.537Z,0.68
2022-09-15T16:56:28.125Z,0.60
2022-09-15T16:59:00.168Z,0.80
2022-09-15T17:01:27.659Z,0.55
2022-09-15T17:03:54.230Z,1.17
2022-09-15T17:06:22.008Z,1.35
2022-09-15T17:08:48.782Z,0.43
2022-09-15T17:11:20.465Z,1.13
2022-09-15T17:13:47.396Z,0.43
2022-09-15T17:16:17.515Z,0.73
2022-09-15T17:18:44.113Z,0.50
2022-09-15T17:21:11.750Z,1.48
2022-09-15T17:23:39.871Z,1.20
2022-09-15T17:26:11.444Z,1.35
2022-09-15T17:28:38.056Z,0.52
2022-09-15T17:31:09.811Z,0.63
2022-09-15T17:33:36.361Z,1.42
2022-09-15T17:36:02.920Z,1.50
2022-09-15T17:38:29.402Z,0.65
2022-09-15T17:40:55.954Z,1.30
2022-09-15T17:43:25.193Z,1.45
2022-09-15T17:45:52.017Z,2.00
2022-09-15T17:48:18.731Z,0.47
2022-09-15T17:50:46.229Z,6.40
2022-09-15T17:53:23.420Z,0.52
2022-09-15T17:55:50.825Z,0.75
2022-09-15T17:58:17.765Z,0.60
2022-09-15T18:00:44.897Z,1.80
2022-09-15T18:03:21.929Z,1.35
2022-09-15T18:05:48.425Z,0.45
2022-09-15T18:08:16.402Z,1.30
2022-09-15T18:10:43.380Z,1.17
2022-09-15T18:13:14.667Z,1.10
2022-09-15T18:15:42.808Z,1.50
2022-09-15T18:18:13.541Z,1.25
2022-09-15T18:20:40.349Z,2.15
2022-09-15T18:23:06.904Z,0.60
2022-09-15T18:25:36.531Z,1.52
2022-09-15T18:28:03.948Z,0.80
2022-09-15T18:30:42.149Z,0.30
2022-09-15T18:33:14.849Z,0.95
2022-09-15T18:35:42.081Z,1.33
2022-09-15T18:38:08.802Z,0.60
2022-09-15T18:40:35.477Z,0.77
2022-09-15T18:43:02.239Z,1.05
2022-09-15T18:45:28.971Z,1.05
2022-09-15T18:47:55.420Z,1.85
2022-09-15T18:50:23.465Z,1.55
2022-09-15T18:52:50.093Z,0.93
2022-09-15T18:55:19.589Z,2.05
2022-09-15T18:57:47.155Z,1.30
2022-09-15T19:00:22.478Z,0.50
2022-09-15T19:02:48.930Z,1.48
2022-09-15T19:05:16.385Z,1.65
2022-09-15T19:07:44.042Z,0.68
2022-09-15T19:10:12.438Z,0.50
2022-09-15T19:12:39.159Z,0.60
2022-09-15T19:15:10.873Z,1.13
2022-09-15T19:17:38.545Z,1.50
2022-09-15T19:20:08.967Z,0.47
2022-09-15T19:22:36.097Z,1.10
2022-09-15T19:25:03.297Z,1.30
2022-09-15T19:27:29.890Z,0.47
2022-09-15T19:29:56.464Z,0.63
2022-09-15T19:32:23.132Z,0.95
2022-09-15T19:34:49.655Z,0.50
2022-09-15T19:37:18.971Z,4.25
2022-09-15T19:39:46.433Z,2.28
2022-09-15T19:42:13.439Z,1.00
2022-09-15T19:44:41.092Z,1.35
2022-09-15T19:47:08.463Z,0.50
2022-09-15T19:49:35.053Z,1.27
2022-09-15T19:52:01.557Z,1.55
2022-09-15T19:54:30.037Z,1.60
2022-09-15T19:56:56.858Z,0.60
2022-09-15T19:59:27.458Z,1.50
2022-09-15T20:01:56.790Z,1.38
2022-09-15T20:04:23.481Z,0.60
2022-09-15T20:06:49.990Z,1.27
2022-09-15T20:09:16.987Z,1.38
2022-09-15T20:11:43.554Z,0.45
2022-09-15T20:14:10.170Z,0.45
2022-09-15T20:16:37.075Z,1.10
2022-09-15T20:19:04.205Z,1.48
2022-09-15T20:21:50.855Z,1.02
2022-09-15T20:24:19.576Z,1.60
2022-09-15T20:26:46.219Z,0.68
2022-09-15T20:29:13.136Z,1.33
2022-09-15T20:31:39.846Z,1.48
2022-09-15T20:34:06.356Z,1.40
2022-09-15T20:36:35.426Z,0.52
2022-09-15T20:39:03.816Z,1.08
2022-09-15T20:41:31.984Z,1.50
2022-09-15T20:43:58.903Z,0.50
2022-09-15T20:46:25.505Z,0.32
2022-09-15T20:48:52.529Z,1.27
2022-09-15T20:51:23.873Z,1.17
2022-09-15T20:53:52.372Z,0.95
2022-09-15T20:56:21.223Z,0.47
2022-09-15T20:58:48.035Z,1.70
2022-09-15T21:01:20.723Z,1.55
2022-09-15T21:03:47.935Z,1.60
2022-09-15T21:06:17.382Z,0.40
2022-09-15T21:08:45.962Z,0.63
2022-09-15T21:11:14.802Z,1.45
2022-09-15T21:13:44.489Z,0.57
2022-09-15T21:16:15.114Z,1.90
2022-09-15T21:18:43.069Z,2.63
2022-09-15T21:21:14.662Z,0.45
2022-09-15T21:23:46.790Z,1.35
2022-09-15T21:26:15.351Z,0.70
2022-09-15T21:28:43.486Z,0.60
2022-09-15T21:31:15.124Z,0.40
2022-09-15T21:33:41.975Z,0.50
2022-09-15T21:36:10.851Z,0.43
2022-09-15T21:38:39.253Z,1.35
2022-09-15T21:41:07.502Z,0.88
2022-09-15T21:43:36.563Z,0.60
2022-09-15T21:46:05.036Z,1.40
2022-09-15T21:48:35.419Z,1.48
2022-09-15T21:51:02.980Z,0.95
2022-09-15T21:53:29.795Z,1.20
2022-09-15T21:56:00.604Z,1.52
2022-09-15T21:58:39.003Z,1.27
2022-09-15T22:01:14.112Z,0.57
2022-09-15T22:03:44.541Z,1.45
2022-09-15T22:06:12.452Z,1.17
2022-09-15T22:08:39.792Z,0.50
2022-09-15T22:11:07.379Z,0.47
2022-09-15T22:13:35.927Z,0.52
2022-09-15T22:16:05.516Z,0.55
2022-09-15T22:18:32.044Z,2.10
2022-09-15T22:21:12.993Z,1.52
2022-09-15T22:23:40.058Z,0.52
2022-09-15T22:26:12.499Z,1.30
2022-09-15T22:28:39.147Z,1.20
2022-09-15T22:31:08.111Z,0.32
2022-09-15T22:33:34.770Z,0.63
2022-09-15T22:36:01.746Z,1.05
2022-09-15T22:38:29.784Z,0.63
2022-09-15T22:40:56.742Z,0.43
2022-09-15T22:43:23.505Z,1.50
2022-09-15T22:45:50.045Z,0.47
2022-09-15T22:48:16.577Z,1.67
2022-09-15T22:50:46.142Z,1.55
2022-09-15T22:53:13.011Z,1.55
2022-09-15T22:55:39.869Z,1.48
2022-09-15T22:58:07.076Z,0.43
2022-09-15T23:00:34.139Z,1.20
2022-09-15T23:03:00.627Z,0.55
2022-09-15T23:05:32.449Z,1.05
2022-09-15T23:07:59.232Z,0.98
2022-09-15T23:10:26.683Z,0.55
2022-09-15T23:12:55.322Z,0.50
2022-09-15T23:15:22.155Z,0.40
2022-09-15T23:17:48.867Z,1.08
2022-09-15T23:20:15.364Z,1.58
2022-09-15T23:22:41.895Z,0.55
2022-09-15T23:25:08.752Z,1.38
2022-09-15T23:27:35.249Z,0.60
2022-09-15T23:30:01.684Z,1.27
2022-09-15T23:32:28.126Z,0.73
2022-09-15T23:34:54.786Z,1.33
2022-09-15T23:37:21.621Z,1.75
2022-09-15T23:39:48.364Z,1.45
2022-09-15T23:42:18.785Z,1.15
2022-09-15T23:44:45.793Z,0.52
2022-09-15T23:47:12.249Z,0.45
2022-09-15T23:49:38.708Z,0.55
2022-09-15T23:52:05.167Z,0.60
2022-09-15T23:54:31.612Z,0.30
2022-09-15T23:56:58.104Z,1.17
2022-09-15T23:59:24.769Z,1.20
